sensor_id;sensor_type;location;lat;lon;timestamp;temperature;humidity
26270;DHT22;15937;50.612;6.656;2023-12-29T00:02:10;9.30;99.90
26270;DHT22;15937;50.612;6.656;2023-12-29T00:06:13;9.20;99.90
26270;DHT22;15937;50.612;6.656;2023-12-29T00:10:16;9.20;99.90
26270;DHT22;15937;50.612;6.656;2023-12-29T00:14:18;9.20;99.90
26270;DHT22;15937;50.612;6.656;2023-12-29T00:18:20;9.20;99.90
26270;DHT22;15937;50.612;6.656;2023-12-29T00:22:26;9.20;99.90
26270;DHT22;15937;50.612;6.656;2023-12-29T00:26:29;9.20;99.90
26270;DHT22;15937;50.612;6.656;2023-12-29T00:30:33;9.20;99.90
26270;DHT22;15937;50.612;6.656;2023-12-29T00:34:56;9.20;99.90
26270;DHT22;15937;50.612;6.656;2023-12-29T00:38:59;9.20;99.90
26270;DHT22;15937;50.612;6.656;2023-12-29T00:43:01;9.20;99.90
26270;DHT22;15937;50.612;6.656;2023-12-29T00:47:04;9.30;99.90
26270;DHT22;15937;50.612;6.656;2023-12-29T00:51:06;9.30;99.90
26270;DHT22;15937;50.612;6.656;2023-12-29T00:55:09;9.30;99.90
26270;DHT22;15937;50.612;6.656;2023-12-29T00:59:12;9.30;99.90
26270;DHT22;15937;50.612;6.656;2023-12-29T01:03:14;9.20;99.90
26270;DHT22;15937;50.612;6.656;2023-12-29T01:07:16;9.30;99.90
26270;DHT22;15937;50.612;6.656;2023-12-29T01:11:19;9.30;99.90
26270;DHT22;15937;50.612;6.656;2023-12-29T01:15:22;9.30;99.90
26270;DHT22;15937;50.612;6.656;2023-12-29T01:19:24;9.30;99.90
26270;DHT22;15937;50.612;6.656;2023-12-29T01:23:26;9.30;99.90
26270;DHT22;15937;50.612;6.656;2023-12-29T01:27:29;9.30;99.90
26270;DHT22;15937;50.612;6.656;2023-12-29T01:31:33;9.40;99.90
26270;DHT22;15937;50.612;6.656;2023-12-29T01:35:37;9.40;99.90
26270;DHT22;15937;50.612;6.656;2023-12-29T01:39:39;9.40;99.90
26270;DHT22;15937;50.612;6.656;2023-12-29T01:48:06;9.40;99.90
26270;DHT22;15937;50.612;6.656;2023-12-29T01:52:09;9.30;99.90
26270;DHT22;15937;50.612;6.656;2023-12-29T01:56:11;9.30;99.90
26270;DHT22;15937;50.612;6.656;2023-12-29T02:00:14;9.40;99.90
26270;DHT22;15937;50.612;6.656;2023-12-29T02:04:24;9.30;99.90
26270;DHT22;15937;50.612;6.656;2023-12-29T02:08:30;9.30;99.90
26270;DHT22;15937;50.612;6.656;2023-12-29T02:12:35;9.30;99.90
26270;DHT22;15937;50.612;6.656;2023-12-29T02:17:06;9.20;99.90
26270;DHT22;15937;50.612;6.656;2023-12-29T02:21:09;9.20;99.90
26270;DHT22;15937;50.612;6.656;2023-12-29T02:25:11;9.20;99.90
26270;DHT22;15937;50.612;6.656;2023-12-29T02:29:18;9.20;99.90
26270;DHT22;15937;50.612;6.656;2023-12-29T02:33:23;9.20;99.90
26270;DHT22;15937;50.612;6.656;2023-12-29T02:37:27;9.30;99.90
26270;DHT22;15937;50.612;6.656;2023-12-29T02:41:30;9.30;99.90
26270;DHT22;15937;50.612;6.656;2023-12-29T02:45:32;9.30;99.90
26270;DHT22;15937;50.612;6.656;2023-12-29T02:49:34;9.30;99.90
26270;DHT22;15937;50.612;6.656;2023-12-29T02:53:36;9.30;99.90
26270;DHT22;15937;50.612;6.656;2023-12-29T02:57:39;9.30;99.90
26270;DHT22;15937;50.612;6.656;2023-12-29T03:01:41;9.40;99.90
26270;DHT22;15937;50.612;6.656;2023-12-29T03:05:45;9.50;99.90
26270;DHT22;15937;50.612;6.656;2023-12-29T03:09:47;9.40;99.90
26270;DHT22;15937;50.612;6.656;2023-12-29T03:13:52;9.40;99.90
26270;DHT22;15937;50.612;6.656;2023-12-29T03:17:54;9.40;99.90
26270;DHT22;15937;50.612;6.656;2023-12-29T03:21:56;9.40;99.90
26270;DHT22;15937;50.612;6.656;2023-12-29T03:25:58;9.50;99.90
26270;DHT22;15937;50.612;6.656;2023-12-29T03:30:01;9.50;99.90
26270;DHT22;15937;50.612;6.656;2023-12-29T03:34:03;9.50;99.90
26270;DHT22;15937;50.612;6.656;2023-12-29T03:38:05;9.60;99.90
26270;DHT22;15937;50.612;6.656;2023-12-29T03:42:08;9.60;99.90
26270;DHT22;15937;50.612;6.656;2023-12-29T03:46:20;9.50;99.90
26270;DHT22;15937;50.612;6.656;2023-12-29T03:50:23;9.50;99.90
26270;DHT22;15937;50.612;6.656;2023-12-29T03:54:26;9.50;99.90
26270;DHT22;15937;50.612;6.656;2023-12-29T03:58:28;9.50;99.90
26270;DHT22;15937;50.612;6.656;2023-12-29T04:02:31;9.50;99.90
26270;DHT22;15937;50.612;6.656;2023-12-29T04:06:33;9.50;99.90
26270;DHT22;15937;50.612;6.656;2023-12-29T04:10:35;9.40;99.90
26270;DHT22;15937;50.612;6.656;2023-12-29T04:14:37;9.50;99.90
26270;DHT22;15937;50.612;6.656;2023-12-29T04:18:42;9.40;99.90
26270;DHT22;15937;50.612;6.656;2023-12-29T04:22:46;9.40;99.90
26270;DHT22;15937;50.612;6.656;2023-12-29T04:26:49;9.40;99.90
26270;DHT22;15937;50.612;6.656;2023-12-29T04:30:51;9.40;99.90
26270;DHT22;15937;50.612;6.656;2023-12-29T04:34:53;9.30;99.90
26270;DHT22;15937;50.612;6.656;2023-12-29T04:38:56;9.30;99.90
26270;DHT22;15937;50.612;6.656;2023-12-29T04:42:58;9.30;99.90
26270;DHT22;15937;50.612;6.656;2023-12-29T04:47:00;9.30;99.90
26270;DHT22;15937;50.612;6.656;2023-12-29T04:51:02;9.30;99.90
26270;DHT22;15937;50.612;6.656;2023-12-29T04:55:06;9.30;99.90
26270;DHT22;15937;50.612;6.656;2023-12-29T04:59:08;9.20;99.90
26270;DHT22;15937;50.612;6.656;2023-12-29T05:03:11;9.20;99.90
26270;DHT22;15937;50.612;6.656;2023-12-29T05:07:13;9.20;99.90
26270;DHT22;15937;50.612;6.656;2023-12-29T05:11:16;9.20;99.90
26270;DHT22;15937;50.612;6.656;2023-12-29T05:15:18;9.20;99.90
26270;DHT22;15937;50.612;6.656;2023-12-29T05:19:20;9.20;99.90
26270;DHT22;15937;50.612;6.656;2023-12-29T05:23:24;9.30;99.90
26270;DHT22;15937;50.612;6.656;2023-12-29T05:27:27;9.40;99.90
26270;DHT22;15937;50.612;6.656;2023-12-29T05:31:30;9.40;99.90
26270;DHT22;15937;50.612;6.656;2023-12-29T05:35:32;9.40;99.90
26270;DHT22;15937;50.612;6.656;2023-12-29T05:39:35;9.50;99.90
26270;DHT22;15937;50.612;6.656;2023-12-29T05:43:37;9.40;99.90
26270;DHT22;15937;50.612;6.656;2023-12-29T05:47:40;9.40;99.90
26270;DHT22;15937;50.612;6.656;2023-12-29T05:51:44;9.40;99.90
26270;DHT22;15937;50.612;6.656;2023-12-29T05:55:46;9.30;99.90
26270;DHT22;15937;50.612;6.656;2023-12-29T05:59:51;9.30;99.90
26270;DHT22;15937;50.612;6.656;2023-12-29T06:03:54;9.20;99.90
26270;DHT22;15937;50.612;6.656;2023-12-29T06:07:56;9.20;99.90
26270;DHT22;15937;50.612;6.656;2023-12-29T06:12:08;9.20;99.90
26270;DHT22;15937;50.612;6.656;2023-12-29T06:16:20;9.20;99.90
26270;DHT22;15937;50.612;6.656;2023-12-29T06:33:15;9.20;99.90
26270;DHT22;15937;50.612;6.656;2023-12-29T06:37:20;9.10;99.90
26270;DHT22;15937;50.612;6.656;2023-12-29T06:41:32;9.10;99.90
26270;DHT22;15937;50.612;6.656;2023-12-29T06:45:36;9.10;99.90
26270;DHT22;15937;50.612;6.656;2023-12-29T06:49:42;9.00;99.90
26270;DHT22;15937;50.612;6.656;2023-12-29T06:53:50;9.10;99.90
26270;DHT22;15937;50.612;6.656;2023-12-29T06:58:14;9.10;99.90
26270;DHT22;15937;50.612;6.656;2023-12-29T07:02:17;9.10;99.90
26270;DHT22;15937;50.612;6.656;2023-12-29T07:15:00;9.20;99.90
26270;DHT22;15937;50.612;6.656;2023-12-29T07:44:33;9.10;99.90
26270;DHT22;15937;50.612;6.656;2023-12-29T07:48:35;9.10;99.90
26270;DHT22;15937;50.612;6.656;2023-12-29T07:52:45;9.20;99.90
26270;DHT22;15937;50.612;6.656;2023-12-29T07:56:58;9.10;99.90
26270;DHT22;15937;50.612;6.656;2023-12-29T08:01:16;9.10;99.90
26270;DHT22;15937;50.612;6.656;2023-12-29T08:05:38;9.20;99.90
26270;DHT22;15937;50.612;6.656;2023-12-29T08:09:56;9.20;99.90
26270;DHT22;15937;50.612;6.656;2023-12-29T08:14:22;9.20;99.90
26270;DHT22;15937;50.612;6.656;2023-12-29T08:18:42;9.30;99.90
26270;DHT22;15937;50.612;6.656;2023-12-29T08:31:35;9.40;99.90
26270;DHT22;15937;50.612;6.656;2023-12-29T08:35:37;9.40;99.90
26270;DHT22;15937;50.612;6.656;2023-12-29T08:40:08;9.40;99.90
26270;DHT22;15937;50.612;6.656;2023-12-29T08:44:16;9.50;99.90
26270;DHT22;15937;50.612;6.656;2023-12-29T08:48:21;9.40;99.90
26270;DHT22;15937;50.612;6.656;2023-12-29T08:52:36;9.50;99.90
26270;DHT22;15937;50.612;6.656;2023-12-29T08:56:48;9.40;99.90
26270;DHT22;15937;50.612;6.656;2023-12-29T09:00:52;9.40;99.90
26270;DHT22;15937;50.612;6.656;2023-12-29T09:05:02;9.40;99.90
26270;DHT22;15937;50.612;6.656;2023-12-29T09:09:07;9.40;99.90
26270;DHT22;15937;50.612;6.656;2023-12-29T09:13:16;9.30;99.90
26270;DHT22;15937;50.612;6.656;2023-12-29T09:17:27;9.40;99.90
26270;DHT22;15937;50.612;6.656;2023-12-29T09:22:04;9.50;99.90
26270;DHT22;15937;50.612;6.656;2023-12-29T09:26:34;9.50;99.90
26270;DHT22;15937;50.612;6.656;2023-12-29T09:31:09;9.60;99.90
26270;DHT22;15937;50.612;6.656;2023-12-29T09:35:38;9.60;99.90
26270;DHT22;15937;50.612;6.656;2023-12-29T09:40:08;9.70;99.90
26270;DHT22;15937;50.612;6.656;2023-12-29T09:44:42;9.70;99.90
26270;DHT22;15937;50.612;6.656;2023-12-29T09:49:19;9.70;99.90
26270;DHT22;15937;50.612;6.656;2023-12-29T09:53:46;9.80;99.90
26270;DHT22;15937;50.612;6.656;2023-12-29T09:57:49;9.70;99.90
26270;DHT22;15937;50.612;6.656;2023-12-29T10:06:49;9.90;99.90
26270;DHT22;15937;50.612;6.656;2023-12-29T10:10:53;9.90;99.90
26270;DHT22;15937;50.612;6.656;2023-12-29T10:23:38;10.00;99.90
26270;DHT22;15937;50.612;6.656;2023-12-29T10:27:42;10.00;99.90
26270;DHT22;15937;50.612;6.656;2023-12-29T10:31:44;9.90;99.90
26270;DHT22;15937;50.612;6.656;2023-12-29T10:36:03;10.00;99.90
26270;DHT22;15937;50.612;6.656;2023-12-29T10:40:08;10.00;99.90
26270;DHT22;15937;50.612;6.656;2023-12-29T10:44:33;10.00;99.90
26270;DHT22;15937;50.612;6.656;2023-12-29T10:48:41;10.00;99.90
26270;DHT22;15937;50.612;6.656;2023-12-29T10:53:14;10.10;99.90
26270;DHT22;15937;50.612;6.656;2023-12-29T10:57:21;10.20;99.90
26270;DHT22;15937;50.612;6.656;2023-12-29T11:01:48;10.20;99.90
26270;DHT22;15937;50.612;6.656;2023-12-29T11:05:59;10.40;99.90
26270;DHT22;15937;50.612;6.656;2023-12-29T11:10:26;10.40;99.90
26270;DHT22;15937;50.612;6.656;2023-12-29T11:14:32;10.40;99.90
26270;DHT22;15937;50.612;6.656;2023-12-29T11:18:45;10.40;99.90
26270;DHT22;15937;50.612;6.656;2023-12-29T11:23:06;10.40;99.90
26270;DHT22;15937;50.612;6.656;2023-12-29T11:27:27;10.50;99.90
26270;DHT22;15937;50.612;6.656;2023-12-29T11:31:34;10.60;99.90
26270;DHT22;15937;50.612;6.656;2023-12-29T11:44:26;10.60;99.90
26270;DHT22;15937;50.612;6.656;2023-12-29T11:48:54;10.60;99.90
26270;DHT22;15937;50.612;6.656;2023-12-29T11:52:58;10.50;99.90
26270;DHT22;15937;50.612;6.656;2023-12-29T11:57:00;10.60;99.90
26270;DHT22;15937;50.612;6.656;2023-12-29T12:01:12;10.70;99.90
26270;DHT22;15937;50.612;6.656;2023-12-29T12:05:44;10.80;99.90
26270;DHT22;15937;50.612;6.656;2023-12-29T12:09:49;10.70;99.90
26270;DHT22;15937;50.612;6.656;2023-12-29T12:13:57;10.70;99.90
26270;DHT22;15937;50.612;6.656;2023-12-29T12:22:17;10.60;99.90
26270;DHT22;15937;50.612;6.656;2023-12-29T12:26:28;10.70;99.90
26270;DHT22;15937;50.612;6.656;2023-12-29T12:30:41;10.70;99.90
26270;DHT22;15937;50.612;6.656;2023-12-29T12:35:09;10.70;99.90
26270;DHT22;15937;50.612;6.656;2023-12-29T12:39:21;10.70;99.90
26270;DHT22;15937;50.612;6.656;2023-12-29T12:43:31;10.70;99.90
26270;DHT22;15937;50.612;6.656;2023-12-29T12:48:03;10.70;99.90
26270;DHT22;15937;50.612;6.656;2023-12-29T12:52:11;10.60;99.90
26270;DHT22;15937;50.612;6.656;2023-12-29T12:56:14;10.60;99.90
26270;DHT22;15937;50.612;6.656;2023-12-29T13:00:17;10.70;99.90
26270;DHT22;15937;50.612;6.656;2023-12-29T13:04:19;10.60;99.90
26270;DHT22;15937;50.612;6.656;2023-12-29T13:08:22;10.80;99.90
26270;DHT22;15937;50.612;6.656;2023-12-29T13:12:35;10.70;99.90
26270;DHT22;15937;50.612;6.656;2023-12-29T13:16:37;10.70;99.90
26270;DHT22;15937;50.612;6.656;2023-12-29T13:20:44;10.60;99.90
26270;DHT22;15937;50.612;6.656;2023-12-29T13:24:47;10.70;99.90
26270;DHT22;15937;50.612;6.656;2023-12-29T13:28:49;10.70;99.90
26270;DHT22;15937;50.612;6.656;2023-12-29T13:32:51;10.60;99.90
26270;DHT22;15937;50.612;6.656;2023-12-29T13:37:13;10.60;99.90
26270;DHT22;15937;50.612;6.656;2023-12-29T13:41:19;10.60;99.90
26270;DHT22;15937;50.612;6.656;2023-12-29T13:45:24;10.60;99.90
26270;DHT22;15937;50.612;6.656;2023-12-29T13:49:26;10.60;99.90
26270;DHT22;15937;50.612;6.656;2023-12-29T13:53:28;10.60;99.90
26270;DHT22;15937;50.612;6.656;2023-12-29T13:57:32;10.60;99.90
26270;DHT22;15937;50.612;6.656;2023-12-29T14:01:36;10.60;99.90
26270;DHT22;15937;50.612;6.656;2023-12-29T14:05:51;10.50;99.90
26270;DHT22;15937;50.612;6.656;2023-12-29T14:09:56;10.40;99.90
26270;DHT22;15937;50.612;6.656;2023-12-29T14:13:58;10.40;99.90
26270;DHT22;15937;50.612;6.656;2023-12-29T14:18:01;10.30;99.90
26270;DHT22;15937;50.612;6.656;2023-12-29T14:22:03;10.20;99.90
26270;DHT22;15937;50.612;6.656;2023-12-29T14:26:06;10.20;99.90
26270;DHT22;15937;50.612;6.656;2023-12-29T14:30:19;10.10;99.90
26270;DHT22;15937;50.612;6.656;2023-12-29T14:34:22;10.10;99.90
26270;DHT22;15937;50.612;6.656;2023-12-29T14:38:25;10.00;99.90
26270;DHT22;15937;50.612;6.656;2023-12-29T14:42:27;10.00;99.90
26270;DHT22;15937;50.612;6.656;2023-12-29T14:46:30;9.80;99.90
26270;DHT22;15937;50.612;6.656;2023-12-29T14:50:31;9.80;99.90
26270;DHT22;15937;50.612;6.656;2023-12-29T14:54:33;9.80;99.90
26270;DHT22;15937;50.612;6.656;2023-12-29T14:58:35;9.80;99.90
26270;DHT22;15937;50.612;6.656;2023-12-29T15:02:38;9.70;99.90
26270;DHT22;15937;50.612;6.656;2023-12-29T15:06:40;9.70;99.90
26270;DHT22;15937;50.612;6.656;2023-12-29T15:10:42;9.70;99.90
26270;DHT22;15937;50.612;6.656;2023-12-29T15:14:46;9.60;99.90
26270;DHT22;15937;50.612;6.656;2023-12-29T15:18:48;9.70;99.90
26270;DHT22;15937;50.612;6.656;2023-12-29T15:22:50;9.60;99.90
26270;DHT22;15937;50.612;6.656;2023-12-29T15:26:55;9.60;99.90
26270;DHT22;15937;50.612;6.656;2023-12-29T15:30:57;9.60;99.90
26270;DHT22;15937;50.612;6.656;2023-12-29T15:34:59;9.60;99.90
26270;DHT22;15937;50.612;6.656;2023-12-29T15:39:01;9.60;99.90
26270;DHT22;15937;50.612;6.656;2023-12-29T15:43:03;9.60;99.90
26270;DHT22;15937;50.612;6.656;2023-12-29T15:47:05;9.60;99.90
26270;DHT22;15937;50.612;6.656;2023-12-29T15:51:07;9.60;99.90
26270;DHT22;15937;50.612;6.656;2023-12-29T15:55:10;9.50;99.90
26270;DHT22;15937;50.612;6.656;2023-12-29T15:59:12;9.60;99.90
26270;DHT22;15937;50.612;6.656;2023-12-29T16:03:14;9.60;99.90
26270;DHT22;15937;50.612;6.656;2023-12-29T16:07:19;9.50;99.90
26270;DHT22;15937;50.612;6.656;2023-12-29T16:11:26;9.60;99.90
26270;DHT22;15937;50.612;6.656;2023-12-29T16:15:29;9.50;99.90
26270;DHT22;15937;50.612;6.656;2023-12-29T16:19:31;9.50;99.90
26270;DHT22;15937;50.612;6.656;2023-12-29T16:23:34;9.50;99.90
26270;DHT22;15937;50.612;6.656;2023-12-29T16:27:36;9.50;99.90
26270;DHT22;15937;50.612;6.656;2023-12-29T16:31:38;9.50;99.90
26270;DHT22;15937;50.612;6.656;2023-12-29T16:35:40;9.50;99.90
26270;DHT22;15937;50.612;6.656;2023-12-29T16:39:43;9.40;99.90
26270;DHT22;15937;50.612;6.656;2023-12-29T16:43:46;9.40;99.90
26270;DHT22;15937;50.612;6.656;2023-12-29T16:47:50;9.50;99.90
26270;DHT22;15937;50.612;6.656;2023-12-29T16:51:52;9.40;99.90
26270;DHT22;15937;50.612;6.656;2023-12-29T16:55:54;9.50;99.90
26270;DHT22;15937;50.612;6.656;2023-12-29T16:59:57;9.60;99.90
26270;DHT22;15937;50.612;6.656;2023-12-29T17:03:59;9.50;99.90
26270;DHT22;15937;50.612;6.656;2023-12-29T17:08:01;9.50;99.90
26270;DHT22;15937;50.612;6.656;2023-12-29T17:12:05;9.50;99.90
26270;DHT22;15937;50.612;6.656;2023-12-29T17:16:07;9.40;99.90
26270;DHT22;15937;50.612;6.656;2023-12-29T17:20:09;9.50;99.90
26270;DHT22;15937;50.612;6.656;2023-12-29T17:24:11;9.50;99.90
26270;DHT22;15937;50.612;6.656;2023-12-29T17:28:13;9.60;99.90
26270;DHT22;15937;50.612;6.656;2023-12-29T17:32:15;9.60;99.90
26270;DHT22;15937;50.612;6.656;2023-12-29T17:36:17;9.50;99.90
26270;DHT22;15937;50.612;6.656;2023-12-29T17:40:20;9.50;99.90
26270;DHT22;15937;50.612;6.656;2023-12-29T17:44:22;9.60;99.90
26270;DHT22;15937;50.612;6.656;2023-12-29T17:48:24;9.50;99.90
26270;DHT22;15937;50.612;6.656;2023-12-29T17:52:26;9.60;99.90
26270;DHT22;15937;50.612;6.656;2023-12-29T17:56:28;9.70;99.90
26270;DHT22;15937;50.612;6.656;2023-12-29T18:00:31;9.70;99.90
26270;DHT22;15937;50.612;6.656;2023-12-29T18:04:33;9.80;99.90
26270;DHT22;15937;50.612;6.656;2023-12-29T18:08:35;9.70;99.90
26270;DHT22;15937;50.612;6.656;2023-12-29T18:12:38;9.50;99.90
26270;DHT22;15937;50.612;6.656;2023-12-29T18:16:41;9.50;99.90
26270;DHT22;15937;50.612;6.656;2023-12-29T18:20:43;9.50;99.90
26270;DHT22;15937;50.612;6.656;2023-12-29T19:38:15;9.50;99.90
26270;DHT22;15937;50.612;6.656;2023-12-29T19:42:18;9.50;99.90
26270;DHT22;15937;50.612;6.656;2023-12-29T19:46:20;9.70;99.90
26270;DHT22;15937;50.612;6.656;2023-12-29T19:50:25;9.70;99.90
26270;DHT22;15937;50.612;6.656;2023-12-29T19:54:28;9.80;99.90
26270;DHT22;15937;50.612;6.656;2023-12-29T19:58:30;9.90;99.90
26270;DHT22;15937;50.612;6.656;2023-12-29T20:02:32;9.80;99.90
26270;DHT22;15937;50.612;6.656;2023-12-29T20:06:34;9.70;99.90
26270;DHT22;15937;50.612;6.656;2023-12-29T20:10:38;9.70;99.90
26270;DHT22;15937;50.612;6.656;2023-12-29T20:14:39;9.70;99.90
26270;DHT22;15937;50.612;6.656;2023-12-29T20:18:41;9.70;99.90
26270;DHT22;15937;50.612;6.656;2023-12-29T20:22:43;9.60;99.90
26270;DHT22;15937;50.612;6.656;2023-12-29T20:26:46;9.50;99.90
26270;DHT22;15937;50.612;6.656;2023-12-29T20:30:48;9.50;99.90
26270;DHT22;15937;50.612;6.656;2023-12-29T20:34:50;9.40;99.90
26270;DHT22;15937;50.612;6.656;2023-12-29T20:38:52;9.40;99.90
26270;DHT22;15937;50.612;6.656;2023-12-29T20:42:57;9.40;99.90
26270;DHT22;15937;50.612;6.656;2023-12-29T20:46:59;9.40;99.90
26270;DHT22;15937;50.612;6.656;2023-12-29T20:51:01;9.40;99.90
26270;DHT22;15937;50.612;6.656;2023-12-29T20:55:11;9.30;99.90
26270;DHT22;15937;50.612;6.656;2023-12-29T20:59:13;9.40;99.90
26270;DHT22;15937;50.612;6.656;2023-12-29T21:03:16;9.40;99.90
26270;DHT22;15937;50.612;6.656;2023-12-29T21:07:18;9.20;99.90
26270;DHT22;15937;50.612;6.656;2023-12-29T21:11:20;9.40;99.90
26270;DHT22;15937;50.612;6.656;2023-12-29T21:15:23;9.20;99.90
26270;DHT22;15937;50.612;6.656;2023-12-29T21:19:25;9.20;99.90
26270;DHT22;15937;50.612;6.656;2023-12-29T21:23:27;9.10;99.90
26270;DHT22;15937;50.612;6.656;2023-12-29T21:27:29;9.10;99.90
26270;DHT22;15937;50.612;6.656;2023-12-29T21:31:34;9.10;99.90
26270;DHT22;15937;50.612;6.656;2023-12-29T21:35:36;9.00;99.90
26270;DHT22;15937;50.612;6.656;2023-12-29T21:39:40;9.00;99.90
26270;DHT22;15937;50.612;6.656;2023-12-29T21:43:43;9.00;99.90
26270;DHT22;15937;50.612;6.656;2023-12-29T21:47:46;9.00;99.90
26270;DHT22;15937;50.612;6.656;2023-12-29T21:51:49;9.00;99.90
26270;DHT22;15937;50.612;6.656;2023-12-29T21:55:51;9.10;99.90
26270;DHT22;15937;50.612;6.656;2023-12-29T21:59:55;9.10;99.90
26270;DHT22;15937;50.612;6.656;2023-12-29T22:03:57;9.00;99.90
26270;DHT22;15937;50.612;6.656;2023-12-29T22:07:59;9.10;99.90
26270;DHT22;15937;50.612;6.656;2023-12-29T22:12:01;9.00;99.90
26270;DHT22;15937;50.612;6.656;2023-12-29T22:16:03;9.00;99.90
26270;DHT22;15937;50.612;6.656;2023-12-29T22:20:06;8.90;99.90
26270;DHT22;15937;50.612;6.656;2023-12-29T22:24:09;9.00;99.90
26270;DHT22;15937;50.612;6.656;2023-12-29T22:28:11;8.90;99.90
26270;DHT22;15937;50.612;6.656;2023-12-29T22:32:15;9.00;99.90
26270;DHT22;15937;50.612;6.656;2023-12-29T22:36:19;9.10;99.90
26270;DHT22;15937;50.612;6.656;2023-12-29T22:40:21;9.00;99.90
26270;DHT22;15937;50.612;6.656;2023-12-29T22:44:23;9.10;99.90
26270;DHT22;15937;50.612;6.656;2023-12-29T22:48:25;9.20;99.90
26270;DHT22;15937;50.612;6.656;2023-12-29T22:52:27;9.10;99.90
26270;DHT22;15937;50.612;6.656;2023-12-29T22:56:29;9.00;99.90
26270;DHT22;15937;50.612;6.656;2023-12-29T23:00:32;9.00;99.90
26270;DHT22;15937;50.612;6.656;2023-12-29T23:04:38;9.00;99.90
26270;DHT22;15937;50.612;6.656;2023-12-29T23:08:41;8.90;99.90
26270;DHT22;15937;50.612;6.656;2023-12-29T23:12:42;9.00;99.90
26270;DHT22;15937;50.612;6.656;2023-12-29T23:16:44;9.00;99.90
26270;DHT22;15937;50.612;6.656;2023-12-29T23:20:48;9.00;99.90
26270;DHT22;15937;50.612;6.656;2023-12-29T23:24:49;8.90;99.90
26270;DHT22;15937;50.612;6.656;2023-12-29T23:28:54;8.90;99.90
26270;DHT22;15937;50.612;6.656;2023-12-29T23:32:55;8.80;99.90
26270;DHT22;15937;50.612;6.656;2023-12-29T23:37:02;8.70;99.90
26270;DHT22;15937;50.612;6.656;2023-12-29T23:41:04;8.60;99.90
26270;DHT22;15937;50.612;6.656;2023-12-29T23:45:07;8.60;99.90
26270;DHT22;15937;50.612;6.656;2023-12-29T23:49:09;8.60;99.90
26270;DHT22;15937;50.612;6.656;2023-12-29T23:53:11;8.50;99.90
26270;DHT22;15937;50.612;6.656;2023-12-29T23:57:13;8.50;99.90
